Time;durP1;ratioP1;P1;durP2;ratioP2;P2;SDS_P1;SDS_P2;PMS_P1;PMS_P2;Temp;Humidity;BMP_temperature;BMP_pressure;BME280_temperature;BME280_humidity;BME280_pressure;Samples;Min_cycle;Max_cycle;Signal;HPM_P1;HPM_P2
2022/01/03 00:02:19;;;;;;;1.03;0.77;;;10.30;99.90;;;;;;5013375;28;20651;-76
2022/01/03 00:04:47;;;;;;;0.97;0.90;;;10.30;99.90;;;;;;5011440;28;20267;-75
2022/01/03 00:07:15;;;;;;;2.93;1.43;;;10.30;99.90;;;;;;5012589;28;20197;-75
2022/01/03 00:09:42;;;;;;;1.80;1.70;;;10.40;99.90;;;;;;5012193;28;20212;-75
2022/01/03 00:12:10;;;;;;;1.67;1.33;;;10.40;99.90;;;;;;5013664;28;20204;-76
2022/01/03 00:14:37;;;;;;;1.53;1.43;;;10.40;99.90;;;;;;5011311;28;20208;-75
2022/01/03 00:17:05;;;;;;;2.03;1.83;;;10.50;99.90;;;;;;5011461;28;20232;-75
2022/01/03 00:19:32;;;;;;;2.30;2.10;;;10.50;99.90;;;;;;5012729;28;20224;-75
2022/01/03 00:22:06;;;;;;;4.40;2.83;;;10.70;99.90;;;;;;5010566;28;20250;-76
2022/01/03 00:24:34;;;;;;;3.77;2.57;;;10.70;99.90;;;;;;5010957;28;20196;-75
2022/01/03 00:27:05;;;;;;;2.80;2.40;;;10.70;99.90;;;;;;5012808;28;20583;-75
2022/01/03 00:29:43;;;;;;;3.00;2.67;;;10.70;99.90;;;;;;5007605;28;20232;-75
2022/01/03 00:32:11;;;;;;;4.97;3.10;;;10.80;99.90;;;;;;5011642;28;20372;-75
2022/01/03 00:34:38;;;;;;;5.13;3.00;;;10.70;99.90;;;;;;5000360;28;20216;-75
2022/01/03 00:37:09;;;;;;;5.57;3.10;;;10.70;99.90;;;;;;5012119;28;20258;-75
2022/01/03 00:39:36;;;;;;;4.50;2.50;;;10.80;99.90;;;;;;5012710;28;20228;-76
2022/01/03 00:42:04;;;;;;;6.27;2.50;;;10.80;99.90;;;;;;5011484;28;20251;-75
2022/01/03 00:44:31;;;;;;;6.33;2.70;;;10.90;99.90;;;;;;5012556;28;20270;-75
2022/01/03 00:46:59;;;;;;;2.87;2.60;;;10.90;99.90;;;;;;5011751;28;20228;-76
2022/01/03 00:49:26;;;;;;;7.40;2.90;;;11.00;99.90;;;;;;5011284;28;20208;-76
2022/01/03 00:51:53;;;;;;;9.00;2.93;;;10.90;99.90;;;;;;5012965;28;20270;-76
2022/01/03 00:54:22;;;;;;;6.23;2.53;;;10.90;99.90;;;;;;5011000;28;20232;-76
2022/01/03 00:56:54;;;;;;;5.50;3.13;;;11.00;99.90;;;;;;5012508;28;20200;-76
2022/01/03 00:59:26;;;;;;;6.40;2.63;;;11.00;99.90;;;;;;5011094;28;20256;-76
2022/01/03 01:01:55;;;;;;;5.33;2.30;;;10.90;99.90;;;;;;5012474;28;20263;-76
2022/01/03 01:04:24;;;;;;;6.33;2.07;;;11.00;99.90;;;;;;5011313;28;20204;-76
2022/01/03 01:06:54;;;;;;;6.20;2.00;;;11.00;99.90;;;;;;5012459;28;20219;-76
2022/01/03 01:09:24;;;;;;;2.83;1.73;;;11.10;99.90;;;;;;5011606;28;20263;-76
2022/01/03 01:11:54;;;;;;;4.83;2.23;;;11.10;99.90;;;;;;5012547;28;20259;-76
2022/01/03 01:14:22;;;;;;;5.03;1.60;;;11.10;99.90;;;;;;5011193;28;20254;-76
2022/01/03 01:16:49;;;;;;;6.70;1.43;;;11.10;99.90;;;;;;5012482;28;20246;-76
2022/01/03 01:19:18;;;;;;;5.60;1.77;;;11.10;99.90;;;;;;5010661;28;20212;-76
2022/01/03 01:21:46;;;;;;;4.43;1.40;;;11.10;99.90;;;;;;5011769;28;20208;-76
2022/01/03 01:24:13;;;;;;;7.03;2.07;;;11.10;99.90;;;;;;5011246;28;20216;-76
2022/01/03 01:29:27;;;;;;;4.80;1.50;;;11.10;99.90;;;;;;5008797;28;20297;-76
2022/01/03 01:32:00;;;;;;;5.43;1.57;;;11.00;99.90;;;;;;5010306;28;20603;-77
2022/01/03 01:34:30;;;;;;;6.43;1.67;;;11.00;99.90;;;;;;5009859;28;20239;-77
2022/01/03 01:37:00;;;;;;;4.67;1.47;;;11.00;99.90;;;;;;5010386;28;20561;-77
2022/01/03 01:39:28;;;;;;;5.90;1.47;;;11.00;99.90;;;;;;5010189;28;20220;-77
2022/01/03 01:42:02;;;;;;;7.23;1.70;;;11.00;99.90;;;;;;5010440;28;20594;-77
2022/01/03 01:44:32;;;;;;;6.53;1.20;;;10.90;99.90;;;;;;5011288;28;20607;-76
2022/01/03 01:47:04;;;;;;;6.40;1.60;;;11.00;99.90;;;;;;5010682;28;20239;-76
2022/01/03 01:49:38;;;;;;;5.00;1.30;;;11.00;99.90;;;;;;5010458;28;20235;-77
2022/01/03 01:52:05;;;;;;;5.90;1.37;;;10.90;99.90;;;;;;5011517;28;20662;-76
2022/01/03 01:54:37;;;;;;;6.73;1.80;;;10.90;99.90;;;;;;5010418;28;20200;-77
2022/01/03 01:57:19;;;;;;;5.87;1.43;;;10.90;99.90;;;;;;5011419;28;20215;-77
2022/01/03 02:00:01;;;;;;;6.57;1.67;;;10.70;99.90;;;;;;5009836;28;20691;-77
2022/01/03 02:02:35;;;;;;;6.33;1.63;;;10.80;99.90;;;;;;5009762;28;20445;-76
2022/01/03 02:05:18;;;;;;;5.23;1.30;;;10.70;99.90;;;;;;5011572;28;20243;-77
2022/01/03 02:08:04;;;;;;;7.30;1.37;;;10.60;99.90;;;;;;4992129;28;20578;-76
2022/01/03 02:10:38;;;;;;;4.47;0.90;;;10.60;99.90;;;;;;5008944;28;20208;-77
2022/01/03 02:13:07;;;;;;;6.57;1.37;;;10.60;99.90;;;;;;5010576;28;20279;-77
2022/01/03 02:15:35;;;;;;;6.37;1.47;;;10.50;99.90;;;;;;5008391;28;20548;-77
2022/01/03 02:18:02;;;;;;;7.37;1.60;;;10.60;99.90;;;;;;5010086;28;20303;-76
2022/01/03 02:20:32;;;;;;;8.30;1.70;;;10.60;99.90;;;;;;5010895;28;20238;-77
2022/01/03 02:22:59;;;;;;;7.50;2.00;;;10.60;99.90;;;;;;5010022;28;20208;-77
2022/01/03 02:25:27;;;;;;;5.67;1.50;;;10.50;99.90;;;;;;5011004;28;20223;-77
2022/01/03 02:27:55;;;;;;;4.33;1.23;;;10.50;99.90;;;;;;5009932;28;20203;-77
2022/01/03 02:30:24;;;;;;;7.10;2.40;;;10.50;99.90;;;;;;5009655;28;20255;-77
2022/01/03 02:32:52;;;;;;;9.87;2.63;;;10.50;99.90;;;;;;5009940;28;20205;-77
2022/01/03 02:35:20;;;;;;;7.83;1.37;;;10.50;99.90;;;;;;5010494;28;20604;-77
2022/01/03 02:37:50;;;;;;;6.33;1.47;;;10.50;99.90;;;;;;5009473;28;20618;-77
2022/01/03 02:40:18;;;;;;;5.30;2.00;;;10.40;99.90;;;;;;5009929;28;20740;-77
2022/01/03 02:42:45;;;;;;;6.93;2.30;;;10.40;99.90;;;;;;5009365;28;20204;-77
2022/01/03 02:45:14;;;;;;;7.70;1.90;;;10.50;99.90;;;;;;5009412;28;20188;-77
2022/01/03 02:47:45;;;;;;;15.33;2.03;;;10.50;99.90;;;;;;5010749;28;20200;-77
2022/01/03 02:50:12;;;;;;;8.20;1.60;;;10.50;99.90;;;;;;5010551;28;20665;-77
2022/01/03 02:52:40;;;;;;;7.37;2.00;;;10.40;99.90;;;;;;5010520;28;20620;-77
2022/01/03 02:55:10;;;;;;;7.23;1.30;;;10.50;99.90;;;;;;5011073;28;20201;-77
2022/01/03 02:57:38;;;;;;;8.30;1.67;;;10.40;99.90;;;;;;5014013;28;20197;-77
2022/01/03 03:00:08;;;;;;;7.73;1.80;;;10.40;99.90;;;;;;5018131;28;20294;-77
2022/01/03 03:02:35;;;;;;;12.23;2.23;;;10.30;99.90;;;;;;5009425;28;20196;-70
2022/01/03 03:05:04;;;;;;;9.27;2.10;;;10.20;99.90;;;;;;5011565;28;20250;-70
2022/01/03 03:07:32;;;;;;;11.40;2.27;;;10.20;99.90;;;;;;5002236;28;20193;-70
2022/01/03 03:10:00;;;;;;;8.47;2.07;;;10.20;99.90;;;;;;5009535;28;20618;-70
2022/01/03 03:12:28;;;;;;;4.93;1.70;;;10.30;99.90;;;;;;5013888;28;20208;-70
2022/01/03 03:14:56;;;;;;;7.27;1.80;;;10.30;99.90;;;;;;5012743;28;20200;-70
2022/01/03 03:17:23;;;;;;;11.07;1.80;;;10.30;99.90;;;;;;5013493;28;20216;-70
2022/01/03 03:19:52;;;;;;;6.97;2.17;;;10.30;99.90;;;;;;5014274;28;20228;-70
2022/01/03 03:22:19;;;;;;;11.43;2.47;;;10.30;99.90;;;;;;5013004;28;20225;-70
2022/01/03 03:24:46;;;;;;;13.57;2.10;;;10.30;99.90;;;;;;5013348;28;20717;-70
2022/01/03 03:27:13;;;;;;;7.87;2.00;;;10.30;99.90;;;;;;5013838;28;20685;-70
2022/01/03 03:29:46;;;;;;;7.00;1.57;;;10.30;99.90;;;;;;5013596;28;20216;-70
2022/01/03 03:32:13;;;;;;;9.43;2.40;;;10.20;99.90;;;;;;5012110;28;20228;-70
2022/01/03 03:34:40;;;;;;;7.50;1.90;;;10.30;99.90;;;;;;5012853;28;20267;-70
2022/01/03 03:37:09;;;;;;;12.40;2.47;;;10.40;99.90;;;;;;5013644;28;20280;-70
2022/01/03 03:39:36;;;;;;;8.03;1.53;;;10.40;99.90;;;;;;5013322;28;20228;-70
2022/01/03 03:42:05;;;;;;;10.70;2.07;;;10.40;99.90;;;;;;5012267;28;20200;-70
2022/01/03 03:44:32;;;;;;;7.37;1.93;;;10.40;99.90;;;;;;5013899;28;20791;-70
2022/01/03 03:47:00;;;;;;;8.27;2.33;;;10.30;99.90;;;;;;5012581;28;20278;-70
2022/01/03 03:49:27;;;;;;;10.07;2.03;;;10.40;99.90;;;;;;4997436;28;20262;-70
2022/01/03 03:51:54;;;;;;;5.53;1.87;;;10.50;99.90;;;;;;5013891;28;20200;-70
2022/01/03 03:54:21;;;;;;;8.20;2.00;;;10.40;99.90;;;;;;5012602;28;20204;-70
2022/01/03 03:56:48;;;;;;;9.23;2.13;;;10.40;99.90;;;;;;5014076;28;20243;-70
2022/01/03 03:59:15;;;;;;;7.70;1.80;;;10.50;99.90;;;;;;5013401;28;20255;-70
2022/01/03 04:01:42;;;;;;;10.67;1.87;;;10.40;99.90;;;;;;4999968;28;20275;-70
2022/01/03 04:04:11;;;;;;;10.33;1.93;;;10.40;99.90;;;;;;4999731;28;20212;-70
2022/01/03 04:06:38;;;;;;;8.40;1.80;;;10.50;99.90;;;;;;5012716;28;20201;-70
2022/01/03 04:09:05;;;;;;;10.37;1.77;;;10.50;99.90;;;;;;5013146;28;20204;-70
2022/01/03 04:11:32;;;;;;;7.30;1.90;;;10.40;99.90;;;;;;5012349;28;20212;-70
2022/01/03 04:13:59;;;;;;;9.80;2.00;;;10.40;99.90;;;;;;5012798;28;20250;-70
2022/01/03 04:16:26;;;;;;;8.93;2.07;;;10.40;99.90;;;;;;5010056;28;20204;-70
2022/01/03 04:18:53;;;;;;;10.27;1.43;;;10.40;99.90;;;;;;5013766;28;20250;-70
2022/01/03 04:21:22;;;;;;;11.43;2.47;;;10.30;99.90;;;;;;5013076;28;20219;-70
2022/01/03 04:23:49;;;;;;;9.37;2.43;;;10.30;99.90;;;;;;5010879;28;20196;-70
2022/01/03 04:26:16;;;;;;;10.43;2.97;;;10.30;99.90;;;;;;4998540;28;20644;-70
2022/01/03 04:28:44;;;;;;;7.53;1.80;;;10.40;99.90;;;;;;5011628;28;20540;-70
2022/01/03 04:31:11;;;;;;;10.70;1.87;;;10.40;99.90;;;;;;5010835;28;20240;-70
2022/01/03 04:33:38;;;;;;;9.60;2.30;;;10.40;99.90;;;;;;5011140;28;20235;-70
2022/01/03 04:36:07;;;;;;;11.97;2.77;;;10.40;99.90;;;;;;5012151;28;20200;-70
2022/01/03 04:38:36;;;;;;;12.77;2.20;;;10.30;99.90;;;;;;5012868;28;20204;-70
2022/01/03 04:41:03;;;;;;;9.03;2.07;;;10.40;99.90;;;;;;5012704;28;20228;-70
2022/01/03 04:43:30;;;;;;;5.97;2.00;;;10.30;99.90;;;;;;5011798;28;20586;-70
2022/01/03 04:45:57;;;;;;;9.00;2.10;;;10.30;99.90;;;;;;5011492;28;20205;-70
2022/01/03 04:48:25;;;;;;;8.43;1.73;;;10.30;99.90;;;;;;5011607;28;20204;-70
2022/01/03 04:50:52;;;;;;;12.53;2.43;;;10.30;99.90;;;;;;5012923;28;20204;-70
2022/01/03 04:53:20;;;;;;;15.23;2.73;;;10.30;99.90;;;;;;5011938;28;20208;-70
2022/01/03 04:55:48;;;;;;;9.23;2.13;;;10.30;99.90;;;;;;5013142;28;20646;-70
2022/01/03 04:58:15;;;;;;;10.30;2.50;;;10.30;99.90;;;;;;5012884;28;20212;-70
2022/01/03 05:00:42;;;;;;;12.37;2.67;;;10.20;99.90;;;;;;5012412;28;20752;-70
2022/01/03 05:03:09;;;;;;;14.17;2.90;;;10.20;99.90;;;;;;5010495;28;20281;-70
2022/01/03 05:05:36;;;;;;;15.67;2.97;;;10.20;99.90;;;;;;5012787;28;20618;-70
2022/01/03 05:08:04;;;;;;;11.77;2.47;;;10.20;99.90;;;;;;5012708;28;20251;-70
2022/01/03 05:10:31;;;;;;;14.93;3.07;;;10.10;99.90;;;;;;5011596;28;20632;-70
2022/01/03 05:12:59;;;;;;;11.17;2.67;;;10.00;99.90;;;;;;5012590;28;20204;-70
2022/01/03 05:15:26;;;;;;;10.23;2.63;;;10.00;99.90;;;;;;5012210;28;20290;-70
2022/01/03 05:17:53;;;;;;;12.60;2.80;;;9.90;99.90;;;;;;5011255;28;20196;-70
2022/01/03 05:20:20;;;;;;;12.20;3.40;;;9.90;99.90;;;;;;5011552;28;20270;-70
2022/01/03 05:22:47;;;;;;;9.87;2.70;;;9.90;99.90;;;;;;5012385;28;20251;-70
2022/01/03 05:25:15;;;;;;;9.17;2.77;;;9.90;99.90;;;;;;5011982;28;20618;-70
2022/01/03 05:27:42;;;;;;;10.93;3.20;;;10.10;99.90;;;;;;5010655;28;20254;-70
2022/01/03 05:30:12;;;;;;;10.67;2.77;;;10.00;99.90;;;;;;5009745;28;20200;-70
2022/01/03 05:32:39;;;;;;;16.00;3.83;;;9.90;99.90;;;;;;5018796;28;20204;-70
2022/01/03 05:35:07;;;;;;;13.83;3.77;;;9.90;99.90;;;;;;5010533;28;20208;-70
2022/01/03 05:37:34;;;;;;;10.67;2.73;;;9.90;99.90;;;;;;5010397;28;20204;-70
2022/01/03 05:40:01;;;;;;;12.67;3.20;;;9.90;99.90;;;;;;5009180;28;20307;-70
2022/01/03 05:42:28;;;;;;;13.97;4.03;;;10.00;99.90;;;;;;5011767;28;20737;-70
2022/01/03 05:44:55;;;;;;;12.40;4.50;;;10.10;99.90;;;;;;5011315;28;20201;-70
2022/01/03 05:47:24;;;;;;;12.73;3.50;;;10.00;99.90;;;;;;5011574;28;20246;-70
2022/01/03 05:49:52;;;;;;;19.97;3.67;;;9.90;99.90;;;;;;5011004;28;20254;-77
2022/01/03 05:52:20;;;;;;;10.90;3.73;;;10.00;99.90;;;;;;5010984;28;20211;-77
2022/01/03 05:54:47;;;;;;;12.87;3.40;;;9.90;99.90;;;;;;5011696;28;20211;-77
2022/01/03 05:57:14;;;;;;;14.70;3.70;;;9.80;99.90;;;;;;5012346;28;20619;-77
2022/01/03 05:59:40;;;;;;;20.97;4.30;;;9.80;99.90;;;;;;5011614;28;20251;-77
2022/01/03 06:02:08;;;;;;;13.57;3.37;;;9.80;99.90;;;;;;5011114;28;20330;-77
2022/01/03 06:04:42;;;;;;;9.63;2.70;;;9.80;99.90;;;;;;5010033;28;20208;-77
2022/01/03 06:07:10;;;;;;;11.27;3.43;;;9.90;99.90;;;;;;5011837;28;20215;-77
2022/01/03 06:09:38;;;;;;;14.40;3.60;;;9.90;99.90;;;;;;5011666;28;20250;-77
2022/01/03 06:12:06;;;;;;;14.93;4.13;;;9.90;99.90;;;;;;5011663;28;20243;-77
2022/01/03 06:14:33;;;;;;;17.37;4.03;;;9.90;99.90;;;;;;5010977;28;20208;-77
2022/01/03 06:17:00;;;;;;;9.73;3.40;;;9.90;99.90;;;;;;5010144;28;20292;-77
2022/01/03 06:19:28;;;;;;;16.87;4.20;;;10.00;99.90;;;;;;5012024;28;20543;-77
2022/01/03 06:21:57;;;;;;;11.80;3.53;;;9.90;99.90;;;;;;5010769;28;20703;-77
2022/01/03 06:24:24;;;;;;;16.47;3.83;;;9.80;99.90;;;;;;5010494;28;20196;-77
2022/01/03 06:26:52;;;;;;;15.37;3.40;;;9.80;99.90;;;;;;5011819;28;20247;-77
2022/01/03 06:29:20;;;;;;;14.30;3.70;;;9.70;99.90;;;;;;5011709;28;20212;-77
2022/01/03 06:31:48;;;;;;;12.80;4.20;;;9.70;99.90;;;;;;5009531;28;20204;-70
2022/01/03 06:34:17;;;;;;;18.70;3.63;;;9.70;99.90;;;;;;5011017;28;20274;-70
2022/01/03 06:36:44;;;;;;;15.43;4.57;;;9.70;99.90;;;;;;5010991;28;20243;-70
2022/01/03 06:39:13;;;;;;;17.83;4.67;;;9.70;99.90;;;;;;5010621;28;20291;-70
2022/01/03 06:41:40;;;;;;;12.77;4.20;;;9.80;99.90;;;;;;5014172;28;20228;-70
2022/01/03 06:44:08;;;;;;;13.10;3.90;;;9.90;99.90;;;;;;5014554;28;20636;-70
2022/01/03 06:46:35;;;;;;;17.47;4.33;;;9.80;99.90;;;;;;5025375;28;20728;-70
2022/01/03 06:49:05;;;;;;;18.20;4.63;;;9.90;99.90;;;;;;5016798;28;20212;-70
2022/01/03 06:51:34;;;;;;;18.83;5.63;;;9.90;99.90;;;;;;5015400;28;20253;-70
2022/01/03 06:54:02;;;;;;;14.93;5.20;;;9.90;99.90;;;;;;5015212;28;20596;-70
2022/01/03 06:56:30;;;;;;;17.43;5.27;;;9.90;99.90;;;;;;5014830;28;20208;-70
2022/01/03 06:58:58;;;;;;;16.10;4.97;;;9.90;99.90;;;;;;5034211;28;20604;-70
2022/01/03 07:01:25;;;;;;;11.17;4.20;;;9.80;99.90;;;;;;5034974;28;20227;-70
2022/01/03 07:03:52;;;;;;;16.43;5.30;;;9.90;99.90;;;;;;5034979;28;20196;-70
2022/01/03 07:06:19;;;;;;;14.73;5.10;;;9.90;99.90;;;;;;5021369;28;20243;-70
2022/01/03 07:08:46;;;;;;;22.80;5.67;;;9.90;99.90;;;;;;5013741;28;20235;-70
2022/01/03 07:11:13;;;;;;;13.57;4.60;;;10.00;99.90;;;;;;5014262;28;20266;-70
2022/01/03 07:13:45;;;;;;;21.00;6.27;;;10.00;99.90;;;;;;5014391;28;20663;-70
2022/01/03 07:18:57;;;;;;;16.10;6.63;;;10.00;99.90;;;;;;5014176;28;20219;-70
2022/01/03 07:21:24;;;;;;;20.67;7.07;;;10.00;99.90;;;;;;5014606;28;20702;-70
2022/01/03 07:23:52;;;;;;;12.63;5.40;;;10.00;99.90;;;;;;5013666;28;20571;-70
2022/01/03 07:26:19;;;;;;;14.03;5.67;;;10.00;99.90;;;;;;5014634;28;20208;-70
2022/01/03 07:28:47;;;;;;;16.77;6.07;;;10.00;99.90;;;;;;5013228;28;20204;-70
2022/01/03 07:31:15;;;;;;;15.90;6.27;;;10.00;99.90;;;;;;5013348;28;20573;-70
2022/01/03 07:33:42;;;;;;;14.30;5.77;;;10.00;99.90;;;;;;5013044;28;20725;-70
2022/01/03 07:36:10;;;;;;;16.67;5.80;;;10.00;99.90;;;;;;5014244;28;20213;-70
2022/01/03 07:38:38;;;;;;;19.73;6.00;;;10.00;99.90;;;;;;5014240;28;20236;-69
2022/01/03 07:41:05;;;;;;;17.97;5.77;;;9.90;99.90;;;;;;5014080;28;20224;-70
2022/01/03 07:43:32;;;;;;;19.73;5.33;;;9.90;99.90;;;;;;5013101;28;20201;-69
2022/01/03 07:46:01;;;;;;;22.37;5.20;;;9.90;99.90;;;;;;5013530;28;20224;-70
2022/01/03 07:48:28;;;;;;;13.97;5.03;;;9.90;99.90;;;;;;5013624;28;20196;-70
2022/01/03 07:50:55;;;;;;;12.47;5.10;;;9.90;99.90;;;;;;5013521;28;20258;-69
2022/01/03 07:53:22;;;;;;;16.70;4.90;;;9.90;99.90;;;;;;5012703;28;20200;-70
2022/01/03 07:55:48;;;;;;;14.63;4.60;;;9.90;99.90;;;;;;5013029;28;20243;-70
2022/01/03 07:58:16;;;;;;;17.80;4.70;;;9.90;99.90;;;;;;5014157;28;20200;-70
2022/01/03 08:00:44;;;;;;;15.73;4.53;;;10.00;99.90;;;;;;5013965;28;20638;-70
2022/01/03 08:03:13;;;;;;;15.90;3.97;;;10.00;99.90;;;;;;5011566;28;20255;-70
2022/01/03 08:05:40;;;;;;;13.13;3.93;;;10.00;99.90;;;;;;5013148;28;20208;-70
2022/01/03 08:08:09;;;;;;;12.17;3.83;;;10.10;99.90;;;;;;5013878;28;20197;-70
2022/01/03 08:10:38;;;;;;;12.70;4.50;;;10.10;99.90;;;;;;5013192;28;20308;-70
2022/01/03 08:13:05;;;;;;;15.73;5.23;;;10.00;99.90;;;;;;5013575;28;20247;-70
2022/01/03 08:15:32;;;;;;;15.47;4.23;;;10.10;99.90;;;;;;5012207;28;20200;-70
2022/01/03 08:17:59;;;;;;;13.53;4.07;;;10.10;99.90;;;;;;5013048;28;20263;-70
2022/01/03 08:20:28;;;;;;;17.00;4.57;;;10.10;99.90;;;;;;5013768;28;20204;-70
2022/01/03 08:22:55;;;;;;;14.57;4.87;;;10.10;99.90;;;;;;5012542;28;20204;-70
2022/01/03 08:25:22;;;;;;;15.07;4.07;;;10.10;99.90;;;;;;5013724;28;20200;-70
2022/01/03 08:27:49;;;;;;;13.70;4.30;;;10.10;99.90;;;;;;5012650;28;20729;-70
2022/01/03 08:30:16;;;;;;;13.40;4.43;;;10.10;99.90;;;;;;5012324;28;20224;-70
2022/01/03 08:32:43;;;;;;;17.03;4.17;;;10.10;99.90;;;;;;5011643;28;20204;-70
2022/01/03 08:35:11;;;;;;;16.70;4.80;;;10.20;99.90;;;;;;5012247;28;20189;-70
2022/01/03 08:37:39;;;;;;;24.80;4.27;;;10.20;99.90;;;;;;5012396;28;20262;-70
2022/01/03 08:40:07;;;;;;;20.13;4.70;;;10.20;99.90;;;;;;5013159;28;20200;-69
2022/01/03 08:42:35;;;;;;;14.40;4.73;;;10.30;99.90;;;;;;5012301;28;20224;-70
2022/01/03 08:45:03;;;;;;;16.17;4.57;;;10.30;99.90;;;;;;5013121;28;20200;-70
2022/01/03 08:47:30;;;;;;;18.90;4.80;;;10.30;99.90;;;;;;5012087;28;20193;-70
2022/01/03 08:49:57;;;;;;;12.07;4.93;;;10.30;99.90;;;;;;5011135;28;20266;-70
2022/01/03 08:52:24;;;;;;;15.10;4.90;;;10.30;99.90;;;;;;5011454;28;20294;-70
2022/01/03 08:54:52;;;;;;;16.10;5.50;;;10.40;99.90;;;;;;5012895;28;20263;-70
2022/01/03 08:57:21;;;;;;;8.40;3.97;;;10.40;99.90;;;;;;5012715;28;20250;-70
2022/01/03 08:59:48;;;;;;;14.63;5.27;;;10.50;99.90;;;;;;5013043;28;20258;-70
2022/01/03 09:02:16;;;;;;;14.93;5.13;;;10.50;99.90;;;;;;5012045;28;20228;-70
2022/01/03 09:04:43;;;;;;;13.23;4.40;;;10.60;99.90;;;;;;5012990;28;20608;-69
2022/01/03 09:07:10;;;;;;;11.43;4.60;;;10.60;99.90;;;;;;5012922;28;20227;-70
2022/01/03 09:09:37;;;;;;;15.53;5.30;;;10.50;99.90;;;;;;5012480;28;20254;-70
2022/01/03 09:12:08;;;;;;;14.97;4.60;;;10.50;99.90;;;;;;5010856;28;20239;-70
2022/01/03 09:14:35;;;;;;;17.13;4.80;;;10.40;99.90;;;;;;5011643;28;20239;-70
2022/01/03 09:17:03;;;;;;;13.63;5.00;;;10.30;99.90;;;;;;5011614;28;20205;-70
2022/01/03 09:19:31;;;;;;;19.27;6.20;;;10.40;99.90;;;;;;5012634;28;20659;-70
2022/01/03 09:22:07;;;;;;;12.07;4.77;;;10.30;99.90;;;;;;5011399;28;20282;-69
2022/01/03 09:24:46;;;;;;;14.83;5.50;;;10.50;99.90;;;;;;5012543;28;20642;-69
2022/01/03 09:30:02;;;;;;;14.90;4.83;;;10.50;99.90;;;;;;5012053;28;20286;-70
2022/01/03 09:32:29;;;;;;;13.27;4.73;;;10.50;99.90;;;;;;5011016;28;20208;-70
2022/01/03 09:34:58;;;;;;;18.67;6.23;;;10.50;99.90;;;;;;5011193;28;20532;-70
2022/01/03 09:37:25;;;;;;;16.03;5.30;;;10.50;99.90;;;;;;5011822;28;20721;-69
2022/01/03 09:39:54;;;;;;;18.40;5.70;;;10.50;99.90;;;;;;5011975;28;20208;-69
2022/01/03 09:42:24;;;;;;;18.03;5.00;;;10.40;99.90;;;;;;5011143;28;20503;-70
2022/01/03 09:44:53;;;;;;;16.63;4.57;;;10.40;99.90;;;;;;5010615;28;20647;-70
2022/01/03 09:47:22;;;;;;;12.00;4.50;;;10.40;99.90;;;;;;5011329;28;20204;-69
2022/01/03 09:49:49;;;;;;;20.80;5.70;;;10.40;99.90;;;;;;5010487;28;20263;-70
2022/01/03 09:52:21;;;;;;;15.70;4.83;;;10.40;99.90;;;;;;5012058;28;20200;-70
2022/01/03 09:54:49;;;;;;;13.10;4.53;;;10.50;99.90;;;;;;5011043;28;20204;-69
2022/01/03 09:57:18;;;;;;;14.20;4.20;;;10.60;99.90;;;;;;5012028;28;20216;-77
2022/01/03 09:59:47;;;;;;;12.70;5.07;;;10.70;99.90;;;;;;5011602;28;20539;-77
2022/01/03 10:02:16;;;;;;;14.60;4.47;;;10.80;99.90;;;;;;5012066;28;20629;-77
2022/01/03 10:04:44;;;;;;;14.60;4.10;;;10.90;99.90;;;;;;5010788;28;20218;-77
2022/01/03 10:07:14;;;;;;;18.70;5.07;;;11.00;99.90;;;;;;5012140;28;20196;-77
2022/01/03 10:09:41;;;;;;;14.20;4.87;;;11.10;99.90;;;;;;5011248;28;20251;-77
2022/01/03 10:12:11;;;;;;;14.90;4.27;;;11.20;99.90;;;;;;4992684;28;20208;-77
2022/01/03 10:14:38;;;;;;;12.13;4.47;;;11.20;99.90;;;;;;4991339;28;20271;-76
2022/01/03 10:17:06;;;;;;;16.33;4.17;;;11.20;99.90;;;;;;4990738;28;20201;-77
2022/01/03 10:19:53;;;;;;;10.33;4.37;;;11.10;99.90;;;;;;5012037;28;20636;-77
2022/01/03 10:22:22;;;;;;;13.93;4.83;;;11.10;99.90;;;;;;5010793;28;20295;-77
2022/01/03 10:24:49;;;;;;;12.77;4.27;;;11.00;99.90;;;;;;5011708;28;20211;-77
2022/01/03 10:27:16;;;;;;;18.27;4.73;;;11.00;99.90;;;;;;5011807;28;20212;-77
2022/01/03 10:29:54;;;;;;;12.83;3.80;;;11.00;99.90;;;;;;5010707;28;20236;-77
2022/01/03 10:32:28;;;;;;;11.63;4.03;;;11.00;99.90;;;;;;5010594;28;20208;-77
2022/01/03 10:34:56;;;;;;;13.50;4.50;;;11.10;99.90;;;;;;5010238;28;20251;-77
2022/01/03 10:37:35;;;;;;;13.30;4.53;;;11.20;99.90;;;;;;5010810;28;20573;-77
2022/01/03 10:40:17;;;;;;;9.90;4.73;;;11.20;99.90;;;;;;5011846;28;20666;-76
2022/01/03 10:42:45;;;;;;;13.00;4.57;;;11.30;99.90;;;;;;5009966;28;20228;-77
2022/01/03 10:45:12;;;;;;;14.07;5.57;;;11.20;99.90;;;;;;5012654;28;20208;-77
2022/01/03 10:47:42;;;;;;;11.47;4.23;;;11.30;99.90;;;;;;5016549;28;20239;-77
2022/01/03 10:50:17;;;;;;;13.67;4.77;;;11.20;99.90;;;;;;5011637;28;20474;-76
2022/01/03 10:52:45;;;;;;;14.90;4.83;;;11.20;99.90;;;;;;5011085;28;20211;-76
2022/01/03 10:55:15;;;;;;;14.67;5.10;;;11.10;99.90;;;;;;5011132;28;20296;-77
2022/01/03 10:57:54;;;;;;;16.00;5.57;;;11.10;99.90;;;;;;5017842;28;20204;-77
2022/01/03 11:00:24;;;;;;;10.67;4.13;;;11.20;99.90;;;;;;5015647;28;20231;-77
2022/01/03 11:03:23;;;;;;;15.83;4.63;;;11.30;99.90;;;;;;5011279;28;20298;-77
2022/01/03 11:05:54;;;;;;;11.77;4.23;;;11.40;99.90;;;;;;5011684;28;20204;-76
2022/01/03 11:11:09;;;;;;;14.03;4.63;;;11.40;99.90;;;;;;5011084;28;20203;-77
2022/01/03 11:13:40;;;;;;;9.53;4.83;;;11.30;99.90;;;;;;5010332;28;20200;-77
2022/01/03 11:16:09;;;;;;;14.90;4.03;;;11.30;99.90;;;;;;5009877;28;20211;-76
2022/01/03 11:18:39;;;;;;;12.70;4.83;;;11.30;99.90;;;;;;5010259;28;20659;-76
2022/01/03 11:21:11;;;;;;;10.63;4.00;;;11.30;99.90;;;;;;5011294;28;20263;-76
2022/01/03 11:23:40;;;;;;;13.97;4.93;;;11.30;99.90;;;;;;5010641;28;20232;-76
2022/01/03 11:26:09;;;;;;;14.57;5.10;;;11.30;99.90;;;;;;5012827;28;20201;-76
2022/01/03 11:28:36;;;;;;;12.83;4.87;;;11.30;99.90;;;;;;5013756;28;20212;-76
2022/01/03 11:31:04;;;;;;;12.53;4.10;;;11.30;99.90;;;;;;5013521;28;20192;-76
2022/01/03 11:33:31;;;;;;;11.50;4.00;;;11.40;99.90;;;;;;5013357;28;20208;-76
2022/01/03 11:36:01;;;;;;;11.53;3.67;;;11.50;99.90;;;;;;5013765;28;20200;-70
2022/01/03 11:38:30;;;;;;;10.73;4.13;;;11.50;99.90;;;;;;5014186;28;20208;-70
2022/01/03 11:41:01;;;;;;;12.43;4.40;;;11.50;99.90;;;;;;5013790;28;20311;-70
2022/01/03 11:43:29;;;;;;;7.40;3.90;;;11.40;99.90;;;;;;5012873;28;20588;-77
2022/01/03 11:45:57;;;;;;;11.03;3.80;;;11.50;99.90;;;;;;5014266;28;20206;-77
2022/01/03 11:48:26;;;;;;;12.70;4.57;;;11.40;99.90;;;;;;5013589;28;20240;-77
2022/01/03 11:50:55;;;;;;;13.03;4.37;;;11.40;99.90;;;;;;5014423;28;20296;-77
2022/01/03 11:53:23;;;;;;;12.27;4.97;;;11.40;99.90;;;;;;5013353;28;20231;-76
2022/01/03 11:55:55;;;;;;;11.07;4.10;;;11.40;99.90;;;;;;5014094;28;20687;-76
2022/01/03 11:58:54;;;;;;;8.27;3.90;;;11.40;99.90;;;;;;5013832;28;20239;-77
2022/01/03 12:04:12;;;;;;;10.43;4.23;;;11.40;99.90;;;;;;5013451;28;20278;-77
2022/01/03 12:06:39;;;;;;;11.07;4.13;;;11.40;99.90;;;;;;5013778;28;20201;-77
2022/01/03 12:09:10;;;;;;;12.30;3.90;;;11.40;99.90;;;;;;5013377;28;20630;-77
2022/01/03 12:11:45;;;;;;;14.47;4.40;;;11.40;99.90;;;;;;5013453;28;20215;-77
2022/01/03 12:14:14;;;;;;;9.30;4.30;;;11.40;99.90;;;;;;5013076;28;20662;-76
2022/01/03 12:16:48;;;;;;;12.23;4.00;;;11.40;99.90;;;;;;5011642;28;20640;-76
2022/01/03 12:19:29;;;;;;;12.43;4.20;;;11.40;99.90;;;;;;5013711;28;20515;-76
2022/01/03 12:21:59;;;;;;;10.60;4.03;;;11.50;99.90;;;;;;5012110;28;20588;-76
2022/01/03 12:24:50;;;;;;;8.73;3.80;;;11.60;99.90;;;;;;5013136;28;20239;-75
2022/01/03 12:27:35;;;;;;;10.10;3.90;;;11.50;99.90;;;;;;5012663;28;20216;-76
2022/01/03 12:30:14;;;;;;;11.47;3.70;;;11.50;99.90;;;;;;5011168;28;20265;-76
2022/01/03 12:32:45;;;;;;;13.33;3.90;;;11.60;99.90;;;;;;5012157;28;20606;-75
2022/01/03 12:35:23;;;;;;;11.57;3.90;;;11.60;99.90;;;;;;5012470;28;20240;-76
2022/01/03 12:38:17;;;;;;;11.07;4.07;;;11.80;99.90;;;;;;5011522;28;20207;-78
2022/01/03 12:40:54;;;;;;;11.93;3.57;;;11.70;99.90;;;;;;5013431;28;20247;-74
2022/01/03 12:43:43;;;;;;;10.33;3.67;;;11.70;99.90;;;;;;5012765;28;20227;-74
2022/01/03 12:46:16;;;;;;;8.17;3.63;;;11.70;99.90;;;;;;5012587;28;20204;-74
2022/01/03 12:48:43;;;;;;;8.40;3.47;;;11.60;99.90;;;;;;5013147;28;20565;-74
2022/01/03 12:51:15;;;;;;;11.13;4.10;;;11.60;99.90;;;;;;5012661;28;20208;-74
2022/01/03 12:53:49;;;;;;;9.13;3.63;;;11.60;99.90;;;;;;5012956;28;20204;-74
2022/01/03 12:56:21;;;;;;;9.47;3.73;;;11.60;99.90;;;;;;5010676;28;20650;-74
2022/01/03 12:58:52;;;;;;;8.00;3.60;;;11.70;99.90;;;;;;5005548;28;20596;-74
2022/01/03 13:01:30;;;;;;;11.50;3.80;;;11.70;99.90;;;;;;5006329;28;20200;-74
2022/01/03 13:04:00;;;;;;;10.07;3.67;;;11.60;99.90;;;;;;5003231;28;20216;-74
2022/01/03 13:06:29;;;;;;;11.60;3.87;;;11.60;99.90;;;;;;5001752;28;20197;-74
2022/01/03 13:09:18;;;;;;;8.43;4.20;;;11.50;99.90;;;;;;5009957;28;20231;-74